sensor_id;sensor_type;location;lat;lon;timestamp;pressure;altitude;pressure_sealevel;temperature;humidity
4767;BME280;2397;53.576;9.746;2023-11-21T00:02:18;100993.81;;;9.29;100.00
4767;BME280;2397;53.576;9.746;2023-11-21T00:04:45;101003.28;;;9.32;100.00
4767;BME280;2397;53.576;9.746;2023-11-21T00:07:12;101015.72;;;9.20;100.00
4767;BME280;2397;53.576;9.746;2023-11-21T00:09:38;101004.78;;;9.25;100.00
4767;BME280;2397;53.576;9.746;2023-11-21T00:12:05;101010.59;;;9.19;100.00
4767;BME280;2397;53.576;9.746;2023-11-21T00:14:32;101006.16;;;9.19;100.00
4767;BME280;2397;53.576;9.746;2023-11-21T00:16:59;101008.94;;;9.27;100.00
4767;BME280;2397;53.576;9.746;2023-11-21T00:19:26;101015.59;;;9.22;100.00
4767;BME280;2397;53.576;9.746;2023-11-21T00:21:52;101025.84;;;9.15;100.00
4767;BME280;2397;53.576;9.746;2023-11-21T00:24:19;101036.91;;;9.09;100.00
4767;BME280;2397;53.576;9.746;2023-11-21T00:26:46;101037.59;;;9.11;100.00
4767;BME280;2397;53.576;9.746;2023-11-21T00:29:15;101030.66;;;9.10;100.00
4767;BME280;2397;53.576;9.746;2023-11-21T00:31:44;101035.50;;;9.05;100.00
4767;BME280;2397;53.576;9.746;2023-11-21T00:34:12;101032.84;;;8.96;100.00
4767;BME280;2397;53.576;9.746;2023-11-21T00:36:39;101047.28;;;9.01;100.00
4767;BME280;2397;53.576;9.746;2023-11-21T00:39:06;101034.63;;;8.95;100.00
4767;BME280;2397;53.576;9.746;2023-11-21T00:41:33;101042.53;;;8.95;100.00
4767;BME280;2397;53.576;9.746;2023-11-21T00:44:00;101040.44;;;8.89;100.00
4767;BME280;2397;53.576;9.746;2023-11-21T00:46:28;101033.75;;;8.85;100.00
4767;BME280;2397;53.576;9.746;2023-11-21T00:48:55;101041.13;;;8.91;100.00
4767;BME280;2397;53.576;9.746;2023-11-21T00:51:22;101049.28;;;8.88;100.00
4767;BME280;2397;53.576;9.746;2023-11-21T00:53:49;101047.47;;;8.79;100.00
4767;BME280;2397;53.576;9.746;2023-11-21T00:56:15;101056.66;;;8.64;100.00
4767;BME280;2397;53.576;9.746;2023-11-21T00:58:42;101065.53;;;8.63;100.00
4767;BME280;2397;53.576;9.746;2023-11-21T01:01:10;101066.31;;;8.54;100.00
4767;BME280;2397;53.576;9.746;2023-11-21T01:03:37;101085.44;;;8.56;100.00
4767;BME280;2397;53.576;9.746;2023-11-21T01:06:04;101080.16;;;8.56;100.00
4767;BME280;2397;53.576;9.746;2023-11-21T01:08:34;101087.59;;;8.51;100.00
4767;BME280;2397;53.576;9.746;2023-11-21T01:11:00;101091.97;;;8.41;100.00
4767;BME280;2397;53.576;9.746;2023-11-21T01:13:27;101095.06;;;8.46;100.00
4767;BME280;2397;53.576;9.746;2023-11-21T01:15:55;101099.59;;;8.44;100.00
4767;BME280;2397;53.576;9.746;2023-11-21T01:18:22;101097.16;;;8.32;100.00
4767;BME280;2397;53.576;9.746;2023-11-21T01:20:48;101099.47;;;8.25;100.00
4767;BME280;2397;53.576;9.746;2023-11-21T01:23:15;101106.53;;;8.25;100.00
4767;BME280;2397;53.576;9.746;2023-11-21T01:25:42;101112.84;;;8.22;100.00
4767;BME280;2397;53.576;9.746;2023-11-21T01:28:08;101115.50;;;8.11;100.00
4767;BME280;2397;53.576;9.746;2023-11-21T01:30:35;101115.38;;;8.13;100.00
4767;BME280;2397;53.576;9.746;2023-11-21T01:33:02;101115.50;;;8.11;100.00
4767;BME280;2397;53.576;9.746;2023-11-21T01:35:30;101123.66;;;8.08;100.00
4767;BME280;2397;53.576;9.746;2023-11-21T01:37:56;101126.03;;;8.11;100.00
4767;BME280;2397;53.576;9.746;2023-11-21T01:40:23;101133.78;;;8.13;100.00
4767;BME280;2397;53.576;9.746;2023-11-21T01:42:52;101143.50;;;8.12;100.00
4767;BME280;2397;53.576;9.746;2023-11-21T01:45:19;101136.66;;;8.10;100.00
4767;BME280;2397;53.576;9.746;2023-11-21T01:47:46;101134.88;;;8.21;100.00
4767;BME280;2397;53.576;9.746;2023-11-21T01:50:16;101139.22;;;8.00;100.00
4767;BME280;2397;53.576;9.746;2023-11-21T01:52:45;101138.88;;;7.94;100.00
4767;BME280;2397;53.576;9.746;2023-11-21T01:55:14;101142.16;;;7.86;100.00
4767;BME280;2397;53.576;9.746;2023-11-21T01:57:54;101136.88;;;7.86;100.00
4767;BME280;2397;53.576;9.746;2023-11-21T02:00:21;101151.97;;;7.73;100.00
4767;BME280;2397;53.576;9.746;2023-11-21T02:02:49;101155.78;;;7.69;100.00
4767;BME280;2397;53.576;9.746;2023-11-21T02:05:18;101161.28;;;7.66;100.00
4767;BME280;2397;53.576;9.746;2023-11-21T02:07:46;101159.16;;;7.71;100.00
4767;BME280;2397;53.576;9.746;2023-11-21T02:10:16;101167.25;;;7.79;100.00
4767;BME280;2397;53.576;9.746;2023-11-21T02:12:44;101175.16;;;7.68;100.00
4767;BME280;2397;53.576;9.746;2023-11-21T02:15:13;101175.25;;;7.78;100.00
4767;BME280;2397;53.576;9.746;2023-11-21T02:17:47;101181.06;;;7.81;100.00
4767;BME280;2397;53.576;9.746;2023-11-21T02:20:18;101186.84;;;7.75;100.00
4767;BME280;2397;53.576;9.746;2023-11-21T02:22:49;101192.13;;;7.64;100.00
4767;BME280;2397;53.576;9.746;2023-11-21T02:25:16;101183.63;;;7.61;100.00
4767;BME280;2397;53.576;9.746;2023-11-21T02:27:44;101190.69;;;7.60;100.00
4767;BME280;2397;53.576;9.746;2023-11-21T02:30:15;101197.09;;;7.67;100.00
4767;BME280;2397;53.576;9.746;2023-11-21T02:32:42;101200.00;;;7.64;100.00
4767;BME280;2397;53.576;9.746;2023-11-21T02:35:15;101205.94;;;7.66;100.00
4767;BME280;2397;53.576;9.746;2023-11-21T02:37:42;101215.38;;;7.58;100.00
4767;BME280;2397;53.576;9.746;2023-11-21T02:40:10;101208.56;;;7.55;100.00
4767;BME280;2397;53.576;9.746;2023-11-21T02:42:41;101223.88;;;7.50;100.00
4767;BME280;2397;53.576;9.746;2023-11-21T02:45:08;101230.56;;;7.54;100.00
4767;BME280;2397;53.576;9.746;2023-11-21T02:47:35;101230.56;;;7.54;100.00
4767;BME280;2397;53.576;9.746;2023-11-21T02:50:01;101220.75;;;7.67;100.00
4767;BME280;2397;53.576;9.746;2023-11-21T02:52:28;101223.38;;;7.56;100.00
4767;BME280;2397;53.576;9.746;2023-11-21T02:54:55;101232.22;;;7.55;100.00
4767;BME280;2397;53.576;9.746;2023-11-21T02:57:22;101227.69;;;7.68;100.00
4767;BME280;2397;53.576;9.746;2023-11-21T02:59:49;101226.63;;;7.49;100.00
4767;BME280;2397;53.576;9.746;2023-11-21T03:02:15;101229.13;;;7.50;100.00
4767;BME280;2397;53.576;9.746;2023-11-21T03:04:43;101233.88;;;7.56;100.00
4767;BME280;2397;53.576;9.746;2023-11-21T03:07:09;101241.19;;;7.53;100.00
4767;BME280;2397;53.576;9.746;2023-11-21T03:09:36;101243.69;;;7.43;100.00
4767;BME280;2397;53.576;9.746;2023-11-21T03:12:03;101244.03;;;7.50;100.00
4767;BME280;2397;53.576;9.746;2023-11-21T03:14:30;101249.50;;;7.36;100.00
4767;BME280;2397;53.576;9.746;2023-11-21T03:16:56;101254.06;;;7.34;100.00
4767;BME280;2397;53.576;9.746;2023-11-21T03:19:23;101264.69;;;7.43;100.00
4767;BME280;2397;53.576;9.746;2023-11-21T03:21:50;101255.63;;;7.47;100.00
4767;BME280;2397;53.576;9.746;2023-11-21T03:24:19;101263.25;;;7.39;100.00
4767;BME280;2397;53.576;9.746;2023-11-21T03:26:46;101257.78;;;7.42;100.00
4767;BME280;2397;53.576;9.746;2023-11-21T03:29:17;101270.78;;;7.44;100.00
4767;BME280;2397;53.576;9.746;2023-11-21T03:31:43;101273.03;;;7.37;100.00
4767;BME280;2397;53.576;9.746;2023-11-21T03:34:16;101278.50;;;7.34;100.00
4767;BME280;2397;53.576;9.746;2023-11-21T03:36:43;101273.53;;;7.42;100.00
4767;BME280;2397;53.576;9.746;2023-11-21T03:39:11;101276.50;;;7.49;100.00
4767;BME280;2397;53.576;9.746;2023-11-21T03:41:37;101284.50;;;7.36;100.00
4767;BME280;2397;53.576;9.746;2023-11-21T03:44:04;101287.34;;;7.33;100.00
4767;BME280;2397;53.576;9.746;2023-11-21T03:46:30;101293.34;;;7.35;100.00
4767;BME280;2397;53.576;9.746;2023-11-21T03:48:57;101311.94;;;7.32;100.00
4767;BME280;2397;53.576;9.746;2023-11-21T03:51:23;101311.91;;;7.21;100.00
4767;BME280;2397;53.576;9.746;2023-11-21T03:53:50;101302.63;;;7.28;100.00
4767;BME280;2397;53.576;9.746;2023-11-21T03:56:17;101305.25;;;7.28;100.00
4767;BME280;2397;53.576;9.746;2023-11-21T03:58:43;101311.47;;;7.27;100.00
4767;BME280;2397;53.576;9.746;2023-11-21T04:01:09;101317.50;;;7.17;100.00
4767;BME280;2397;53.576;9.746;2023-11-21T04:03:36;101309.44;;;7.31;100.00
4767;BME280;2397;53.576;9.746;2023-11-21T04:06:03;101317.91;;;7.45;100.00
4767;BME280;2397;53.576;9.746;2023-11-21T04:08:29;101318.38;;;7.28;100.00
4767;BME280;2397;53.576;9.746;2023-11-21T04:10:56;101324.59;;;7.27;100.00
4767;BME280;2397;53.576;9.746;2023-11-21T04:13:23;101332.19;;;7.19;100.00
4767;BME280;2397;53.576;9.746;2023-11-21T04:15:49;101343.19;;;7.24;100.00
4767;BME280;2397;53.576;9.746;2023-11-21T04:18:16;101347.16;;;7.30;100.00
4767;BME280;2397;53.576;9.746;2023-11-21T04:20:42;101341.88;;;7.19;100.00
4767;BME280;2397;53.576;9.746;2023-11-21T04:23:09;101345.22;;;7.32;100.00
4767;BME280;2397;53.576;9.746;2023-11-21T04:25:36;101345.81;;;7.24;100.00
4767;BME280;2397;53.576;9.746;2023-11-21T04:28:03;101359.53;;;7.28;100.00
4767;BME280;2397;53.576;9.746;2023-11-21T04:30:30;101360.84;;;7.22;100.00
4767;BME280;2397;53.576;9.746;2023-11-21T04:32:57;101366.09;;;7.22;100.00
4767;BME280;2397;53.576;9.746;2023-11-21T04:35:24;101363.97;;;7.27;100.00
4767;BME280;2397;53.576;9.746;2023-11-21T04:37:50;101376.00;;;7.19;100.00
4767;BME280;2397;53.576;9.746;2023-11-21T04:40:17;101380.88;;;7.12;100.00
4767;BME280;2397;53.576;9.746;2023-11-21T04:42:44;101376.31;;;7.14;100.00
4767;BME280;2397;53.576;9.746;2023-11-21T04:45:10;101378.31;;;6.99;100.00
4767;BME280;2397;53.576;9.746;2023-11-21T04:47:39;101381.69;;;7.13;100.00
4767;BME280;2397;53.576;9.746;2023-11-21T04:50:06;101382.81;;;6.97;100.00
4767;BME280;2397;53.576;9.746;2023-11-21T04:52:32;101388.38;;;7.17;100.00
4767;BME280;2397;53.576;9.746;2023-11-21T04:54:59;101395.66;;;7.13;100.00
4767;BME280;2397;53.576;9.746;2023-11-21T04:57:27;101398.72;;;7.07;100.00
4767;BME280;2397;53.576;9.746;2023-11-21T04:59:55;101402.84;;;7.22;100.00
4767;BME280;2397;53.576;9.746;2023-11-21T05:02:21;101402.13;;;7.20;100.00
4767;BME280;2397;53.576;9.746;2023-11-21T05:05:01;101396.25;;;7.17;100.00
4767;BME280;2397;53.576;9.746;2023-11-21T05:07:28;101404.59;;;7.11;100.00
4767;BME280;2397;53.576;9.746;2023-11-21T05:09:58;101408.88;;;7.12;100.00
4767;BME280;2397;53.576;9.746;2023-11-21T05:12:25;101408.41;;;7.07;100.00
4767;BME280;2397;53.576;9.746;2023-11-21T05:14:51;101411.03;;;7.07;100.00
4767;BME280;2397;53.576;9.746;2023-11-21T05:17:18;101421.91;;;7.13;100.00
4767;BME280;2397;53.576;9.746;2023-11-21T05:19:44;101416.75;;;7.12;100.00
4767;BME280;2397;53.576;9.746;2023-11-21T05:22:15;101421.16;;;7.11;100.00
4767;BME280;2397;53.576;9.746;2023-11-21T05:24:42;101438.94;;;7.07;100.00
4767;BME280;2397;53.576;9.746;2023-11-21T05:27:08;101442.38;;;7.08;100.00
4767;BME280;2397;53.576;9.746;2023-11-21T05:29:36;101438.81;;;7.09;100.00
4767;BME280;2397;53.576;9.746;2023-11-21T05:32:04;101444.47;;;7.16;100.00
4767;BME280;2397;53.576;9.746;2023-11-21T05:34:31;101448.38;;;7.10;100.00
4767;BME280;2397;53.576;9.746;2023-11-21T05:36:57;101456.72;;;7.15;100.00
4767;BME280;2397;53.576;9.746;2023-11-21T05:39:24;101450.03;;;7.11;100.00
4767;BME280;2397;53.576;9.746;2023-11-21T05:41:51;101458.53;;;7.15;100.00
4767;BME280;2397;53.576;9.746;2023-11-21T05:44:17;101464.28;;;7.20;100.00
4767;BME280;2397;53.576;9.746;2023-11-21T05:46:44;101466.59;;;7.24;100.00
4767;BME280;2397;53.576;9.746;2023-11-21T05:49:11;101476.38;;;7.09;100.00
4767;BME280;2397;53.576;9.746;2023-11-21T05:51:38;101477.66;;;7.04;100.00
4767;BME280;2397;53.576;9.746;2023-11-21T05:54:05;101482.50;;;7.10;100.00
4767;BME280;2397;53.576;9.746;2023-11-21T05:56:32;101489.88;;;7.05;100.00
4767;BME280;2397;53.576;9.746;2023-11-21T05:58:58;101499.47;;;7.17;100.00
4767;BME280;2397;53.576;9.746;2023-11-21T06:01:26;101497.34;;;7.22;100.00
4767;BME280;2397;53.576;9.746;2023-11-21T06:03:56;101501.09;;;7.31;100.00
4767;BME280;2397;53.576;9.746;2023-11-21T06:06:22;101508.88;;;7.32;100.00
4767;BME280;2397;53.576;9.746;2023-11-21T06:08:51;101511.09;;;7.26;100.00
4767;BME280;2397;53.576;9.746;2023-11-21T06:11:17;101513.50;;;7.29;100.00
4767;BME280;2397;53.576;9.746;2023-11-21T06:13:44;101519.38;;;7.32;100.00
4767;BME280;2397;53.576;9.746;2023-11-21T06:16:10;101518.13;;;7.25;100.00
4767;BME280;2397;53.576;9.746;2023-11-21T06:18:39;101530.56;;;7.23;100.00
4767;BME280;2397;53.576;9.746;2023-11-21T06:21:09;101529.91;;;7.20;100.00
4767;BME280;2397;53.576;9.746;2023-11-21T06:23:35;101533.66;;;7.28;100.00
4767;BME280;2397;53.576;9.746;2023-11-21T06:26:02;101533.31;;;7.09;100.00
4767;BME280;2397;53.576;9.746;2023-11-21T06:28:30;101523.22;;;7.16;100.00
4767;BME280;2397;53.576;9.746;2023-11-21T06:30:57;101538.63;;;7.20;100.00
4767;BME280;2397;53.576;9.746;2023-11-21T06:33:24;101541.06;;;7.23;100.00
4767;BME280;2397;53.576;9.746;2023-11-21T06:35:54;101542.72;;;7.24;100.00
4767;BME280;2397;53.576;9.746;2023-11-21T06:38:22;101546.50;;;7.20;100.00
4767;BME280;2397;53.576;9.746;2023-11-21T06:40:49;101546.94;;;7.14;100.00
4767;BME280;2397;53.576;9.746;2023-11-21T06:43:15;101550.84;;;7.08;100.00
4767;BME280;2397;53.576;9.746;2023-11-21T06:45:42;101563.84;;;7.10;100.00
4767;BME280;2397;53.576;9.746;2023-11-21T06:48:08;101570.47;;;7.03;100.00
4767;BME280;2397;53.576;9.746;2023-11-21T06:50:35;101571.06;;;7.19;100.00
4767;BME280;2397;53.576;9.746;2023-11-21T06:53:01;101574.44;;;7.21;100.00
4767;BME280;2397;53.576;9.746;2023-11-21T06:55:30;101576.47;;;7.05;100.00
4767;BME280;2397;53.576;9.746;2023-11-21T06:57:57;101588.06;;;6.90;100.00
4767;BME280;2397;53.576;9.746;2023-11-21T07:00:24;101589.59;;;7.05;100.00
4767;BME280;2397;53.576;9.746;2023-11-21T07:02:50;101597.97;;;7.10;100.00
4767;BME280;2397;53.576;9.746;2023-11-21T07:05:17;101604.47;;;7.17;100.00
4767;BME280;2397;53.576;9.746;2023-11-21T07:07:48;101610.78;;;7.15;100.00
4767;BME280;2397;53.576;9.746;2023-11-21T07:10:15;101615.97;;;7.03;100.00
4767;BME280;2397;53.576;9.746;2023-11-21T07:12:43;101625.19;;;7.09;100.00
4767;BME280;2397;53.576;9.746;2023-11-21T07:15:09;101624.03;;;6.88;100.00
4767;BME280;2397;53.576;9.746;2023-11-21T07:17:36;101627.63;;;6.87;100.00
4767;BME280;2397;53.576;9.746;2023-11-21T07:20:07;101633.06;;;6.84;100.00
4767;BME280;2397;53.576;9.746;2023-11-21T07:22:33;101644.53;;;6.83;100.00
4767;BME280;2397;53.576;9.746;2023-11-21T07:25:00;101647.25;;;6.94;100.00
4767;BME280;2397;53.576;9.746;2023-11-21T07:27:26;101651.31;;;7.11;100.00
4767;BME280;2397;53.576;9.746;2023-11-21T07:29:53;101651.94;;;7.14;100.00
4767;BME280;2397;53.576;9.746;2023-11-21T07:32:20;101657.59;;;7.08;100.00
4767;BME280;2397;53.576;9.746;2023-11-21T07:34:47;101656.38;;;7.01;100.00
4767;BME280;2397;53.576;9.746;2023-11-21T07:37:13;101662.84;;;7.08;100.00
4767;BME280;2397;53.576;9.746;2023-11-21T07:39:40;101665.38;;;7.09;100.00
4767;BME280;2397;53.576;9.746;2023-11-21T07:42:08;101663.69;;;7.21;100.00
4767;BME280;2397;53.576;9.746;2023-11-21T07:44:35;101667.06;;;7.23;100.00
4767;BME280;2397;53.576;9.746;2023-11-21T07:47:02;101669.03;;;7.32;100.00
4767;BME280;2397;53.576;9.746;2023-11-21T07:49:28;101665.25;;;7.36;100.00
4767;BME280;2397;53.576;9.746;2023-11-21T07:51:55;101675.53;;;7.39;100.00
4767;BME280;2397;53.576;9.746;2023-11-21T07:54:21;101662.81;;;7.33;100.00
4767;BME280;2397;53.576;9.746;2023-11-21T07:56:48;101673.22;;;7.35;100.00
4767;BME280;2397;53.576;9.746;2023-11-21T07:59:14;101672.63;;;7.19;100.00
4767;BME280;2397;53.576;9.746;2023-11-21T08:01:41;101676.31;;;7.29;100.00
4767;BME280;2397;53.576;9.746;2023-11-21T08:04:09;101686.25;;;7.36;100.00
4767;BME280;2397;53.576;9.746;2023-11-21T08:06:36;101688.69;;;7.14;100.00
4767;BME280;2397;53.576;9.746;2023-11-21T08:09:03;101691.88;;;6.94;100.00
4767;BME280;2397;53.576;9.746;2023-11-21T08:11:29;101692.56;;;6.96;100.00
4767;BME280;2397;53.576;9.746;2023-11-21T08:13:58;101692.47;;;6.97;100.00
4767;BME280;2397;53.576;9.746;2023-11-21T08:16:25;101706.66;;;6.95;100.00
4767;BME280;2397;53.576;9.746;2023-11-21T08:18:52;101708.63;;;7.04;100.00
4767;BME280;2397;53.576;9.746;2023-11-21T08:21:18;101709.59;;;7.28;100.00
4767;BME280;2397;53.576;9.746;2023-11-21T08:23:45;101708.22;;;7.23;100.00
4767;BME280;2397;53.576;9.746;2023-11-21T08:26:15;101708.94;;;7.37;100.00
4767;BME280;2397;53.576;9.746;2023-11-21T08:28:42;101717.34;;;7.42;100.00
4767;BME280;2397;53.576;9.746;2023-11-21T08:31:09;101717.19;;;7.56;100.00
4767;BME280;2397;53.576;9.746;2023-11-21T08:33:38;101715.31;;;7.58;100.00
4767;BME280;2397;53.576;9.746;2023-11-21T08:36:08;101716.78;;;7.62;100.00
4767;BME280;2397;53.576;9.746;2023-11-21T08:38:35;101730.75;;;7.63;100.00
4767;BME280;2397;53.576;9.746;2023-11-21T08:41:07;101736.41;;;7.69;100.00
4767;BME280;2397;53.576;9.746;2023-11-21T08:43:35;101744.09;;;7.72;100.00
4767;BME280;2397;53.576;9.746;2023-11-21T08:46:02;101751.00;;;7.73;100.00
4767;BME280;2397;53.576;9.746;2023-11-21T08:48:29;101753.16;;;7.56;100.00
4767;BME280;2397;53.576;9.746;2023-11-21T08:50:56;101757.75;;;7.65;100.00
4767;BME280;2397;53.576;9.746;2023-11-21T08:53:23;101760.06;;;7.69;100.00
4767;BME280;2397;53.576;9.746;2023-11-21T08:55:49;101766.91;;;7.59;100.00
4767;BME280;2397;53.576;9.746;2023-11-21T08:58:16;101777.94;;;7.64;100.00
4767;BME280;2397;53.576;9.746;2023-11-21T09:00:43;101776.03;;;7.66;100.00
4767;BME280;2397;53.576;9.746;2023-11-21T09:03:13;101776.25;;;7.63;100.00
4767;BME280;2397;53.576;9.746;2023-11-21T09:05:40;101780.88;;;7.60;100.00
4767;BME280;2397;53.576;9.746;2023-11-21T09:08:06;101775.63;;;7.60;100.00
4767;BME280;2397;53.576;9.746;2023-11-21T09:10:34;101789.06;;;7.68;100.00
4767;BME280;2397;53.576;9.746;2023-11-21T09:13:03;101798.94;;;7.77;100.00
4767;BME280;2397;53.576;9.746;2023-11-21T09:15:29;101796.84;;;7.57;100.00
4767;BME280;2397;53.576;9.746;2023-11-21T09:17:56;101796.34;;;7.64;100.00
4767;BME280;2397;53.576;9.746;2023-11-21T09:20:22;101800.13;;;7.60;100.00
4767;BME280;2397;53.576;9.746;2023-11-21T09:22:49;101795.88;;;7.70;100.00
4767;BME280;2397;53.576;9.746;2023-11-21T09:25:16;101808.94;;;7.59;100.00
4767;BME280;2397;53.576;9.746;2023-11-21T09:27:43;101812.59;;;7.69;100.00
4767;BME280;2397;53.576;9.746;2023-11-21T09:30:10;101814.63;;;7.66;100.00
4767;BME280;2397;53.576;9.746;2023-11-21T09:32:40;101821.56;;;7.67;100.00
4767;BME280;2397;53.576;9.746;2023-11-21T09:35:07;101826.34;;;7.73;100.00
4767;BME280;2397;53.576;9.746;2023-11-21T09:37:35;101835.41;;;7.69;100.00
4767;BME280;2397;53.576;9.746;2023-11-21T09:40:02;101843.53;;;7.66;100.00
4767;BME280;2397;53.576;9.746;2023-11-21T09:42:34;101843.72;;;7.63;100.00
4767;BME280;2397;53.576;9.746;2023-11-21T09:45:06;101844.34;;;7.66;100.00
4767;BME280;2397;53.576;9.746;2023-11-21T09:47:38;101842.88;;;7.50;100.00
4767;BME280;2397;53.576;9.746;2023-11-21T09:50:05;101846.44;;;7.49;100.00
4767;BME280;2397;53.576;9.746;2023-11-21T09:52:55;101857.59;;;7.65;100.00
4767;BME280;2397;53.576;9.746;2023-11-21T09:55:26;101862.63;;;7.55;100.00
4767;BME280;2397;53.576;9.746;2023-11-21T09:57:54;101863.19;;;7.60;100.00
4767;BME280;2397;53.576;9.746;2023-11-21T10:00:22;101865.56;;;7.63;100.00
4767;BME280;2397;53.576;9.746;2023-11-21T10:02:50;101866.22;;;7.79;100.00
4767;BME280;2397;53.576;9.746;2023-11-21T10:05:17;101868.09;;;7.65;100.00
4767;BME280;2397;53.576;9.746;2023-11-21T10:07:44;101875.88;;;7.66;100.00
4767;BME280;2397;53.576;9.746;2023-11-21T10:10:11;101871.69;;;7.76;100.00
4767;BME280;2397;53.576;9.746;2023-11-21T10:12:41;101875.56;;;7.71;100.00
4767;BME280;2397;53.576;9.746;2023-11-21T10:15:11;101877.03;;;7.62;100.00
4767;BME280;2397;53.576;9.746;2023-11-21T10:17:44;101869.66;;;7.67;100.00
4767;BME280;2397;53.576;9.746;2023-11-21T10:20:11;101874.91;;;7.67;100.00
4767;BME280;2397;53.576;9.746;2023-11-21T10:22:40;101876.19;;;7.62;100.00
4767;BME280;2397;53.576;9.746;2023-11-21T10:25:10;101881.88;;;7.56;100.00
4767;BME280;2397;53.576;9.746;2023-11-21T10:27:37;101881.13;;;7.66;100.00
4767;BME280;2397;53.576;9.746;2023-11-21T10:30:06;101886.38;;;7.66;100.00
4767;BME280;2397;53.576;9.746;2023-11-21T10:32:34;101892.78;;;7.50;100.00
4767;BME280;2397;53.576;9.746;2023-11-21T10:35:00;101897.50;;;7.45;100.00
4767;BME280;2397;53.576;9.746;2023-11-21T10:37:33;101907.19;;;7.57;100.00
4767;BME280;2397;53.576;9.746;2023-11-21T10:39:59;101902.34;;;7.51;100.00
4767;BME280;2397;53.576;9.746;2023-11-21T10:42:26;101912.66;;;7.66;100.00
4767;BME280;2397;53.576;9.746;2023-11-21T10:44:55;101899.00;;;7.74;100.00
4767;BME280;2397;53.576;9.746;2023-11-21T10:47:23;101904.66;;;7.68;100.00
4767;BME280;2397;53.576;9.746;2023-11-21T10:49:50;101906.78;;;7.75;100.00
4767;BME280;2397;53.576;9.746;2023-11-21T10:52:19;101902.81;;;7.82;100.00
4767;BME280;2397;53.576;9.746;2023-11-21T10:54:46;101907.50;;;7.77;100.00
4767;BME280;2397;53.576;9.746;2023-11-21T10:57:18;101905.94;;;7.87;100.00
4767;BME280;2397;53.576;9.746;2023-11-21T10:59:46;101908.47;;;8.01;100.00
4767;BME280;2397;53.576;9.746;2023-11-21T11:02:23;101902.03;;;8.05;100.00
4767;BME280;2397;53.576;9.746;2023-11-21T11:04:55;101907.81;;;8.10;100.00
4767;BME280;2397;53.576;9.746;2023-11-21T11:07:27;101903.59;;;8.20;100.00
4767;BME280;2397;53.576;9.746;2023-11-21T11:09:54;101912.22;;;8.35;100.00
4767;BME280;2397;53.576;9.746;2023-11-21T11:12:21;101913.25;;;8.45;100.00
4767;BME280;2397;53.576;9.746;2023-11-21T11:14:51;101918.22;;;8.37;100.00
4767;BME280;2397;53.576;9.746;2023-11-21T11:17:21;101926.22;;;8.35;100.00
4767;BME280;2397;53.576;9.746;2023-11-21T11:19:49;101924.00;;;8.29;100.00
4767;BME280;2397;53.576;9.746;2023-11-21T11:22:29;101920.97;;;8.23;100.00
4767;BME280;2397;53.576;9.746;2023-11-21T11:27:50;101917.91;;;8.16;100.00
4767;BME280;2397;53.576;9.746;2023-11-21T11:33:53;101925.19;;;8.25;99.50
4767;BME280;2397;53.576;9.746;2023-11-21T11:36:28;101929.81;;;8.22;98.06
4767;BME280;2397;53.576;9.746;2023-11-21T11:38:55;101931.59;;;8.21;99.74
4767;BME280;2397;53.576;9.746;2023-11-21T11:41:28;101936.66;;;8.37;100.00
4767;BME280;2397;53.576;9.746;2023-11-21T11:43:57;101933.06;;;8.38;100.00
4767;BME280;2397;53.576;9.746;2023-11-21T11:46:43;101933.06;;;8.38;100.00
4767;BME280;2397;53.576;9.746;2023-11-21T11:49:27;101929.88;;;8.58;100.00
4767;BME280;2397;53.576;9.746;2023-11-21T11:54:59;101934.78;;;8.62;97.80
4767;BME280;2397;53.576;9.746;2023-11-21T11:57:30;101937.88;;;8.56;98.30
4767;BME280;2397;53.576;9.746;2023-11-21T12:02:36;101942.50;;;8.53;96.71
4767;BME280;2397;53.576;9.746;2023-11-21T12:05:11;101943.41;;;8.64;95.04
4767;BME280;2397;53.576;9.746;2023-11-21T12:10:17;101946.16;;;8.63;93.26
4767;BME280;2397;53.576;9.746;2023-11-21T12:12:49;101951.88;;;8.44;94.76
4767;BME280;2397;53.576;9.746;2023-11-21T12:15:16;101963.16;;;8.21;93.71
4767;BME280;2397;53.576;9.746;2023-11-21T12:17:43;101975.75;;;8.16;93.06
4767;BME280;2397;53.576;9.746;2023-11-21T12:20:13;101976.94;;;8.12;93.13
4767;BME280;2397;53.576;9.746;2023-11-21T12:22:47;101988.81;;;8.05;94.96
4767;BME280;2397;53.576;9.746;2023-11-21T12:25:27;101994.28;;;8.02;95.28
4767;BME280;2397;53.576;9.746;2023-11-21T12:27:59;102002.78;;;8.06;93.34
4767;BME280;2397;53.576;9.746;2023-11-21T12:30:28;101998.69;;;8.14;93.44
4767;BME280;2397;53.576;9.746;2023-11-21T12:32:58;102002.16;;;8.02;93.44
4767;BME280;2397;53.576;9.746;2023-11-21T12:35:28;102006.34;;;7.92;95.49
4767;BME280;2397;53.576;9.746;2023-11-21T12:37:56;102005.81;;;7.87;96.32
4767;BME280;2397;53.576;9.746;2023-11-21T12:40:26;102000.78;;;7.97;96.59
4767;BME280;2397;53.576;9.746;2023-11-21T12:42:56;102007.50;;;7.88;96.68
4767;BME280;2397;53.576;9.746;2023-11-21T12:45:24;102009.81;;;7.93;96.73
4767;BME280;2397;53.576;9.746;2023-11-21T12:48:00;102009.59;;;7.83;98.32
4767;BME280;2397;53.576;9.746;2023-11-21T12:50:30;102017.66;;;7.68;99.08
4767;BME280;2397;53.576;9.746;2023-11-21T12:53:03;102018.06;;;7.62;100.00
4767;BME280;2397;53.576;9.746;2023-11-21T12:55:32;102026.41;;;7.68;100.00
4767;BME280;2397;53.576;9.746;2023-11-21T12:58:01;102026.75;;;7.50;100.00
4767;BME280;2397;53.576;9.746;2023-11-21T13:00:48;102038.78;;;7.66;100.00
4767;BME280;2397;53.576;9.746;2023-11-21T13:03:16;102040.31;;;7.56;100.00
4767;BME280;2397;53.576;9.746;2023-11-21T13:05:47;102048.00;;;7.59;100.00
4767;BME280;2397;53.576;9.746;2023-11-21T13:08:20;102045.69;;;7.55;100.00
4767;BME280;2397;53.576;9.746;2023-11-21T13:10:50;102049.19;;;7.41;100.00
4767;BME280;2397;53.576;9.746;2023-11-21T13:13:18;102059.56;;;7.57;100.00
4767;BME280;2397;53.576;9.746;2023-11-21T13:15:58;102055.53;;;7.51;100.00
4767;BME280;2397;53.576;9.746;2023-11-21T13:18:27;102070.44;;;7.51;100.00
4767;BME280;2397;53.576;9.746;2023-11-21T13:20:55;102075.63;;;7.26;100.00
4767;BME280;2397;53.576;9.746;2023-11-21T13:23:23;102076.78;;;7.34;100.00
4767;BME280;2397;53.576;9.746;2023-11-21T13:25:51;102074.13;;;7.22;100.00
4767;BME280;2397;53.576;9.746;2023-11-21T13:28:28;102070.91;;;7.31;100.00
4767;BME280;2397;53.576;9.746;2023-11-21T13:30:59;102079.31;;;7.09;100.00
4767;BME280;2397;53.576;9.746;2023-11-21T13:33:37;102081.34;;;7.18;100.00